Avalon, Missouri
Current Conditions -  °F | °C
As of 3:15 PM on Sunday 21 Dec 2014 (Local Time) from KGPH Reporting Station
Overcast Overcast  
Wind Chill: 39°   Ceiling: 3900
Heat Index: 45°   Visibility: 10mi
Dew Point: 37°   Wind: 12mph
Humidity: 76%   Direction: 170°S
Pressure: 29.85"   Gusts: 17mph
Location:  39.66°N, 93.44°W
Report Text: KGPH 212115Z AUTO 17010G15KT 10SM SCT031 OVC039 07/03 A2985 RMK AO2
Loading
Personal Weather Stations






























Interactive Weather Map New forecast layout! Learn more

10-Day Weather Forecast

Advertisements
Track Severe Weather on mobile